createdAt,value
2023-02-11T00:00:17.681Z,956.41
2023-02-11T00:01:17.655Z,956.45
2023-02-11T00:02:17.723Z,956.45
2023-02-11T00:03:17.667Z,956.42
2023-02-11T00:04:17.670Z,956.45
2023-02-11T00:05:17.636Z,956.42
2023-02-11T00:06:17.635Z,956.43
2023-02-11T00:07:17.587Z,956.46
2023-02-11T00:08:17.592Z,956.44
2023-02-11T00:09:17.610Z,956.45
2023-02-11T00:10:17.607Z,956.42
2023-02-11T00:11:17.550Z,956.42
2023-02-11T00:12:17.558Z,956.40
2023-02-11T00:13:17.535Z,956.38
2023-02-11T00:14:17.542Z,956.36
2023-02-11T00:15:17.542Z,956.37
2023-02-11T00:16:17.645Z,956.41
2023-02-11T00:17:17.513Z,956.40
2023-02-11T00:18:17.515Z,956.44
2023-02-11T00:19:17.532Z,956.45
2023-02-11T00:20:17.478Z,956.38
2023-02-11T00:21:17.524Z,956.44
2023-02-11T00:22:17.521Z,956.42
2023-02-11T00:23:17.458Z,956.44
2023-02-11T00:24:17.425Z,956.45
2023-02-11T00:25:17.475Z,956.48
2023-02-11T00:26:17.410Z,956.46
2023-02-11T00:27:17.419Z,956.50
2023-02-11T00:28:17.448Z,956.52
2023-02-11T00:29:17.381Z,956.55
2023-02-11T00:30:17.361Z,956.49
2023-02-11T00:31:17.501Z,956.52
2023-02-11T00:32:17.347Z,956.51
2023-02-11T00:33:17.390Z,956.50
2023-02-11T00:34:17.366Z,956.52
2023-02-11T00:35:17.376Z,956.49
2023-02-11T00:36:17.397Z,956.51
2023-02-11T00:37:17.301Z,956.49
2023-02-11T00:38:17.287Z,956.47
2023-02-11T00:39:17.355Z,956.45
2023-02-11T00:40:17.286Z,956.41
2023-02-11T00:41:17.336Z,956.46
2023-02-11T00:42:17.280Z,956.36
2023-02-11T00:43:17.240Z,956.34
2023-02-11T00:44:17.287Z,956.35
2023-02-11T00:45:17.248Z,956.32
2023-02-11T00:46:17.469Z,956.37
2023-02-11T00:47:17.201Z,956.39
2023-02-11T00:48:17.221Z,956.39
2023-02-11T00:49:17.230Z,956.45
2023-02-11T00:50:17.640Z,956.41
2023-02-11T00:51:17.181Z,956.38
2023-02-11T00:52:17.144Z,956.35
2023-02-11T00:53:17.156Z,956.34
2023-02-11T00:54:17.188Z,956.28
2023-02-11T00:55:17.131Z,956.28
2023-02-11T00:56:17.128Z,956.33
2023-02-11T00:57:17.149Z,956.25
2023-02-11T00:58:17.110Z,956.28
2023-02-11T00:59:17.139Z,956.29
2023-02-11T01:00:17.076Z,956.27
2023-02-11T01:01:17.103Z,956.23
2023-02-11T01:02:17.077Z,956.22
2023-02-11T01:03:17.040Z,956.20
2023-02-11T01:04:17.086Z,956.24
2023-02-11T01:05:17.173Z,956.27
2023-02-11T01:06:17.015Z,956.29
2023-02-11T01:07:17.037Z,956.28
2023-02-11T01:08:17.009Z,956.22
2023-02-11T01:09:16.988Z,956.27
2023-02-11T01:10:16.987Z,956.28
2023-02-11T01:11:17.034Z,956.27
2023-02-11T01:12:16.999Z,956.27
2023-02-11T01:13:16.976Z,956.25
2023-02-11T01:14:16.988Z,956.24
2023-02-11T01:15:16.947Z,956.26
2023-02-11T01:16:17.016Z,956.26
2023-02-11T01:17:16.917Z,956.25
2023-02-11T01:18:16.936Z,956.23
2023-02-11T01:19:16.915Z,956.21
2023-02-11T01:20:16.905Z,956.21
2023-02-11T01:21:16.869Z,956.09
2023-02-11T01:22:16.906Z,956.10
2023-02-11T01:23:16.967Z,956.10
2023-02-11T01:24:16.915Z,956.08
2023-02-11T01:25:16.835Z,956.10
2023-02-11T01:26:16.872Z,956.16
2023-02-11T01:27:16.893Z,956.18
2023-02-11T01:28:16.886Z,956.19
2023-02-11T01:29:16.839Z,956.13
2023-02-11T01:30:16.793Z,956.20
2023-02-11T01:31:16.947Z,956.20
2023-02-11T01:32:16.914Z,956.16
2023-02-11T01:33:16.783Z,956.16
2023-02-11T01:34:16.765Z,956.21
2023-02-11T01:35:16.751Z,956.16
2023-02-11T01:36:16.738Z,956.14
2023-02-11T01:37:16.746Z,956.19
2023-02-11T01:38:16.715Z,956.16
2023-02-11T01:39:16.762Z,956.15
2023-02-11T01:40:16.696Z,956.15
2023-02-11T01:41:16.696Z,956.14
2023-02-11T01:42:16.728Z,956.13
2023-02-11T01:43:16.696Z,956.19
2023-02-11T01:44:16.728Z,956.18
2023-02-11T01:45:16.754Z,956.12
2023-02-11T01:46:16.712Z,956.13
2023-02-11T01:47:21.633Z,956.09
2023-02-11T01:48:16.619Z,956.12
2023-02-11T01:49:16.851Z,956.06
2023-02-11T01:50:16.639Z,956.10
2023-02-11T01:51:16.616Z,956.10
2023-02-11T01:52:16.612Z,956.09
2023-02-11T01:53:16.583Z,956.12
2023-02-11T01:54:16.574Z,956.12
2023-02-11T01:55:16.585Z,956.14
2023-02-11T01:56:16.555Z,956.16
2023-02-11T01:57:16.582Z,956.15
2023-02-11T01:58:16.549Z,956.13
2023-02-11T01:59:16.521Z,956.12
2023-02-11T02:00:16.612Z,956.10
2023-02-11T02:01:16.556Z,956.06
2023-02-11T02:02:16.518Z,956.11
2023-02-11T02:03:16.576Z,956.08
2023-02-11T02:04:16.491Z,956.07
2023-02-11T02:05:16.501Z,956.08
2023-02-11T02:06:16.441Z,956.05
2023-02-11T02:07:16.423Z,956.11
2023-02-11T02:08:16.436Z,956.10
2023-02-11T02:09:16.477Z,956.12
2023-02-11T02:10:16.476Z,956.17
2023-02-11T02:11:16.434Z,956.15
2023-02-11T02:12:16.402Z,956.14
2023-02-11T02:13:16.391Z,956.12
2023-02-11T02:14:16.422Z,956.12
2023-02-11T02:15:16.350Z,956.10
2023-02-11T02:16:16.475Z,956.05
2023-02-11T02:17:16.356Z,955.97
2023-02-11T02:18:16.344Z,955.94
2023-02-11T02:19:16.321Z,955.97
2023-02-11T02:20:16.334Z,955.98
2023-02-11T02:21:16.336Z,955.98
2023-02-11T02:22:16.323Z,955.95
2023-02-11T02:23:16.291Z,955.91
2023-02-11T02:24:16.274Z,955.97
2023-02-11T02:25:16.357Z,955.96
2023-02-11T02:26:16.295Z,955.89
2023-02-11T02:27:16.282Z,955.91
2023-02-11T02:28:16.528Z,955.97
2023-02-11T02:29:16.288Z,955.97
2023-02-11T02:30:16.282Z,955.99
2023-02-11T02:31:16.223Z,955.92
2023-02-11T02:32:16.338Z,955.88
2023-02-11T02:33:23.008Z,955.84
2023-02-11T02:34:17.197Z,955.81
2023-02-11T02:35:16.175Z,955.84
2023-02-11T02:36:16.163Z,955.77
2023-02-11T02:37:16.170Z,955.76
2023-02-11T02:38:16.223Z,955.82
2023-02-11T02:39:16.123Z,955.76
2023-02-11T02:40:16.124Z,955.81
2023-02-11T02:41:16.154Z,955.80
2023-02-11T02:42:16.131Z,955.83
2023-02-11T02:43:16.079Z,955.79
2023-02-11T02:44:16.136Z,955.78
2023-02-11T02:45:16.081Z,955.82
2023-02-11T02:46:16.171Z,955.78
2023-02-11T02:47:16.053Z,955.80
2023-02-11T02:48:16.123Z,955.80
2023-02-11T02:49:16.035Z,955.77
2023-02-11T02:50:16.132Z,955.80
2023-02-11T02:51:16.082Z,955.76
2023-02-11T02:52:16.021Z,955.73
2023-02-11T02:53:15.982Z,955.69
2023-02-11T02:54:15.986Z,955.71
2023-02-11T02:55:16.122Z,955.72
2023-02-11T02:56:16.125Z,955.65
2023-02-11T02:57:15.958Z,955.65
2023-02-11T02:58:16.036Z,955.64
2023-02-11T02:59:15.966Z,955.60
2023-02-11T03:00:15.926Z,955.62
2023-02-11T03:01:16.041Z,955.61
2023-02-11T03:02:15.988Z,955.70
2023-02-11T03:03:15.906Z,955.68
2023-02-11T03:04:15.958Z,955.72
2023-02-11T03:05:15.893Z,955.77
2023-02-11T03:06:15.896Z,955.75
2023-02-11T03:07:15.847Z,955.75
2023-02-11T03:08:15.848Z,955.72
2023-02-11T03:09:15.916Z,955.74
2023-02-11T03:10:15.864Z,955.73
2023-02-11T03:11:15.826Z,955.71
2023-02-11T03:12:15.834Z,955.71
2023-02-11T03:13:15.858Z,955.65
2023-02-11T03:14:16.618Z,955.69
2023-02-11T03:15:15.829Z,955.67
2023-02-11T03:16:15.833Z,955.62
2023-02-11T03:17:15.832Z,955.58
2023-02-11T03:18:15.754Z,955.55
2023-02-11T03:19:15.747Z,955.55
2023-02-11T03:20:15.721Z,955.56
2023-02-11T03:21:15.763Z,955.52
2023-02-11T03:22:15.715Z,955.51
2023-02-11T03:23:15.740Z,955.43
2023-02-11T03:24:15.719Z,955.47
2023-02-11T03:25:15.697Z,955.48
2023-02-11T03:26:15.717Z,955.51
2023-02-11T03:27:15.695Z,955.58
2023-02-11T03:28:15.736Z,955.60
2023-02-11T03:29:15.642Z,955.56
2023-02-11T03:30:15.644Z,955.57
2023-02-11T03:31:15.887Z,955.55
2023-02-11T03:32:15.808Z,955.49
2023-02-11T03:33:15.623Z,955.46
2023-02-11T03:34:15.694Z,955.44
2023-02-11T03:35:15.582Z,955.45
2023-02-11T03:36:15.639Z,955.39
2023-02-11T03:37:15.583Z,955.40
2023-02-11T03:38:15.613Z,955.39
2023-02-11T03:39:15.553Z,955.34
2023-02-11T03:40:15.540Z,955.36
2023-02-11T03:41:15.547Z,955.30
2023-02-11T03:42:15.533Z,955.29
2023-02-11T03:43:15.541Z,955.27
2023-02-11T03:44:15.543Z,955.34
2023-02-11T03:45:15.521Z,955.29
2023-02-11T03:46:15.499Z,955.23
2023-02-11T03:47:15.498Z,955.26
2023-02-11T03:48:15.592Z,955.27
2023-02-11T03:49:15.487Z,955.33
2023-02-11T03:50:15.443Z,955.34
2023-02-11T03:51:15.459Z,955.33
2023-02-11T03:52:15.469Z,955.39
2023-02-11T03:53:15.474Z,955.37
2023-02-11T03:54:15.419Z,955.30
2023-02-11T03:55:15.406Z,955.28
2023-02-11T03:56:15.389Z,955.28
2023-02-11T03:57:15.385Z,955.30
2023-02-11T03:58:15.369Z,955.27
2023-02-11T03:59:15.404Z,955.30
2023-02-11T04:00:15.479Z,955.35
2023-02-11T04:01:15.380Z,955.29
2023-02-11T04:02:15.334Z,955.23
2023-02-11T04:03:15.463Z,955.25
2023-02-11T04:04:15.327Z,955.24
2023-02-11T04:05:15.350Z,955.18
2023-02-11T04:06:15.347Z,955.14
2023-02-11T04:07:15.282Z,955.15
2023-02-11T04:08:15.341Z,955.15
2023-02-11T04:09:15.355Z,955.15
2023-02-11T04:10:15.249Z,955.15
2023-02-11T04:11:15.433Z,955.15
2023-02-11T04:12:15.250Z,955.14
2023-02-11T04:13:15.261Z,955.18
2023-02-11T04:14:15.291Z,955.22
2023-02-11T04:15:15.249Z,955.17
2023-02-11T04:16:15.226Z,955.20
2023-02-11T04:17:15.173Z,955.25
2023-02-11T04:18:15.251Z,955.23
2023-02-11T04:19:15.152Z,955.33
2023-02-11T04:20:15.195Z,955.33
2023-02-11T04:21:15.164Z,955.40
2023-02-11T04:22:22.648Z,955.36
2023-02-11T04:23:15.152Z,955.34
2023-02-11T04:24:15.228Z,955.33
2023-02-11T04:25:15.139Z,955.30
2023-02-11T04:26:15.085Z,955.35
2023-02-11T04:27:15.155Z,955.40
2023-02-11T04:28:15.170Z,955.39
2023-02-11T04:29:17.616Z,955.46
2023-02-11T04:30:15.062Z,955.46
2023-02-11T04:31:15.273Z,955.47
2023-02-11T04:32:15.032Z,955.44
2023-02-11T04:33:15.028Z,955.48
2023-02-11T04:34:15.073Z,955.46
2023-02-11T04:35:15.111Z,955.61
2023-02-11T04:36:15.003Z,955.58
2023-02-11T04:37:15.024Z,955.56
2023-02-11T04:38:15.078Z,955.58
2023-02-11T04:39:14.969Z,955.52
2023-02-11T04:40:14.954Z,955.51
2023-02-11T04:41:14.958Z,955.50
2023-02-11T04:42:15.030Z,955.49
2023-02-11T04:43:14.944Z,955.46
2023-02-11T04:44:14.929Z,955.50
2023-02-11T04:45:14.921Z,955.47
2023-02-11T04:46:14.929Z,955.47
2023-02-11T04:47:14.957Z,955.44
2023-02-11T04:48:14.898Z,955.45
2023-02-11T04:49:14.896Z,955.48
2023-02-11T04:50:14.869Z,955.52
2023-02-11T04:51:14.852Z,955.55
2023-02-11T04:52:14.944Z,955.56
2023-02-11T04:53:14.874Z,955.54
2023-02-11T04:54:14.852Z,955.60
2023-02-11T04:55:15.140Z,955.58
2023-02-11T04:56:14.855Z,955.59
2023-02-11T04:57:14.910Z,955.65
2023-02-11T04:58:14.827Z,955.63
2023-02-11T04:59:14.829Z,955.64
2023-02-11T05:00:14.783Z,955.65
2023-02-11T05:01:14.816Z,955.66
2023-02-11T05:02:14.742Z,955.69
2023-02-11T05:03:14.753Z,955.67
2023-02-11T05:04:14.882Z,955.67
2023-02-11T05:05:14.748Z,955.71
2023-02-11T05:06:14.696Z,955.71
2023-02-11T05:07:14.707Z,955.69
2023-02-11T05:08:14.718Z,955.66
2023-02-11T05:09:14.714Z,955.60
2023-02-11T05:10:14.682Z,955.56
2023-02-11T05:11:14.661Z,955.59
2023-02-11T05:12:14.714Z,955.56
2023-02-11T05:13:14.661Z,955.59
2023-02-11T05:14:14.629Z,955.65
2023-02-11T05:15:14.646Z,955.70
2023-02-11T05:16:14.663Z,955.75
2023-02-11T05:17:14.638Z,955.74
2023-02-11T05:18:14.600Z,955.77
2023-02-11T05:19:14.586Z,955.72
2023-02-11T05:20:14.572Z,955.74
2023-02-11T05:21:14.556Z,955.70
2023-02-11T05:22:14.680Z,955.78
2023-02-11T05:23:14.569Z,955.76
2023-02-11T05:24:14.661Z,955.77
2023-02-11T05:25:14.518Z,955.80
2023-02-11T05:26:14.517Z,955.77
2023-02-11T05:27:14.503Z,955.80
2023-02-11T05:28:14.589Z,955.80
2023-02-11T05:29:14.511Z,955.82
2023-02-11T05:30:14.482Z,955.81
2023-02-11T05:31:14.727Z,955.79
2023-02-11T05:32:14.480Z,955.82
2023-02-11T05:33:14.461Z,955.80
2023-02-11T05:34:14.557Z,955.83
2023-02-11T05:35:14.422Z,955.87
2023-02-11T05:36:14.428Z,955.81
2023-02-11T05:37:14.476Z,955.83
2023-02-11T05:38:14.445Z,955.79
2023-02-11T05:39:14.382Z,955.85
2023-02-11T05:40:14.422Z,955.84
2023-02-11T05:41:14.362Z,955.80
2023-02-11T05:42:14.352Z,955.82
2023-02-11T05:43:14.362Z,955.76
2023-02-11T05:44:14.385Z,955.71
2023-02-11T05:45:15.160Z,955.77
2023-02-11T05:46:14.370Z,955.65
2023-02-11T05:47:14.319Z,955.72
2023-02-11T05:48:14.318Z,955.73
2023-02-11T05:49:14.338Z,955.70
2023-02-11T05:50:14.278Z,955.70
2023-02-11T05:51:14.308Z,955.76
2023-02-11T05:52:14.254Z,955.78
2023-02-11T05:53:14.243Z,955.81
2023-02-11T05:54:14.229Z,955.86
2023-02-11T05:55:14.338Z,955.83
2023-02-11T05:56:14.209Z,955.87
2023-02-11T05:57:14.203Z,955.86
2023-02-11T05:58:14.190Z,955.85
2023-02-11T05:59:14.217Z,955.82
2023-02-11T06:00:14.176Z,955.79
2023-02-11T06:01:14.217Z,955.83
2023-02-11T06:02:14.231Z,955.84
2023-02-11T06:03:14.237Z,955.84
2023-02-11T06:04:14.134Z,955.87
2023-02-11T06:05:14.181Z,955.85
2023-02-11T06:06:14.156Z,955.85
2023-02-11T06:07:14.196Z,955.74
2023-02-11T06:08:14.090Z,955.76
2023-02-11T06:09:14.112Z,955.71
2023-02-11T06:10:14.075Z,955.68
2023-02-11T06:11:14.071Z,955.63
2023-02-11T06:12:14.069Z,955.61
2023-02-11T06:13:14.135Z,955.59
2023-02-11T06:14:14.036Z,955.58
2023-02-11T06:15:14.026Z,955.55
2023-02-11T06:16:14.119Z,955.57
2023-02-11T06:17:15.721Z,955.62
2023-02-11T06:18:14.014Z,955.59
2023-02-11T06:19:13.983Z,955.55
2023-02-11T06:20:13.997Z,955.56
2023-02-11T06:21:13.981Z,955.54
2023-02-11T06:22:13.967Z,955.48
2023-02-11T06:23:14.003Z,955.47
2023-02-11T06:24:13.934Z,955.46
2023-02-11T06:25:14.623Z,955.38
2023-02-11T06:26:13.965Z,955.39
2023-02-11T06:27:13.965Z,955.38
2023-02-11T06:28:14.085Z,955.33
2023-02-11T06:29:13.923Z,955.27
2023-02-11T06:30:13.899Z,955.24
2023-02-11T06:31:14.034Z,955.29
2023-02-11T06:32:35.709Z,955.30
2023-02-11T06:33:14.899Z,955.35
2023-02-11T06:34:13.839Z,955.33
2023-02-11T06:35:13.817Z,955.32
2023-02-11T06:36:13.812Z,955.22
2023-02-11T06:37:13.802Z,955.18
2023-02-11T06:38:13.830Z,955.17
2023-02-11T06:39:13.782Z,955.15
2023-02-11T06:40:13.809Z,955.09
2023-02-11T06:41:13.805Z,955.08
2023-02-11T06:42:13.758Z,955.02
2023-02-11T06:43:13.799Z,954.97
2023-02-11T06:44:13.729Z,955.02
2023-02-11T06:45:13.747Z,954.97
2023-02-11T06:46:13.774Z,954.98
2023-02-11T06:47:13.703Z,955.02
2023-02-11T06:48:13.703Z,955.02
2023-02-11T06:49:13.734Z,955.05
2023-02-11T06:50:13.685Z,955.12
2023-02-11T06:51:13.690Z,955.16
2023-02-11T06:52:13.671Z,955.23
2023-02-11T06:53:13.650Z,955.24
2023-02-11T06:54:13.678Z,955.25
2023-02-11T06:55:13.660Z,955.26
2023-02-11T06:56:13.624Z,955.21
2023-02-11T06:57:13.614Z,955.23
2023-02-11T06:58:13.627Z,955.26
2023-02-11T06:59:13.604Z,955.31
2023-02-11T07:00:13.580Z,955.35
2023-02-11T07:01:13.570Z,955.39
2023-02-11T07:02:13.633Z,955.45
2023-02-11T07:03:13.739Z,955.45
2023-02-11T07:04:13.666Z,955.49
2023-02-11T07:05:13.549Z,955.50
2023-02-11T07:06:13.517Z,955.52
2023-02-11T07:07:13.507Z,955.47
2023-02-11T07:08:13.497Z,955.45
2023-02-11T07:09:13.512Z,955.46
2023-02-11T07:10:13.491Z,955.45
2023-02-11T07:11:13.493Z,955.52
2023-02-11T07:12:13.461Z,955.52
2023-02-11T07:13:13.452Z,955.56
2023-02-11T07:14:13.438Z,955.55
2023-02-11T07:15:13.464Z,955.55
2023-02-11T07:16:13.574Z,955.57
2023-02-11T07:17:13.407Z,955.50
2023-02-11T07:18:14.749Z,955.53
2023-02-11T07:19:13.380Z,955.55
2023-02-11T07:20:13.377Z,955.55
2023-02-11T07:21:13.400Z,955.62
2023-02-11T07:22:13.365Z,955.63
2023-02-11T07:23:13.355Z,955.59
2023-02-11T07:24:13.356Z,955.66
2023-02-11T07:25:13.327Z,955.62
2023-02-11T07:26:13.362Z,955.63
2023-02-11T07:27:13.331Z,955.62
2023-02-11T07:28:13.344Z,955.59
2023-02-11T07:29:13.279Z,955.56
2023-02-11T07:30:13.271Z,955.50
2023-02-11T07:31:13.451Z,955.43
2023-02-11T07:32:13.412Z,955.35
2023-02-11T07:33:13.255Z,955.33
2023-02-11T07:34:13.238Z,955.25
2023-02-11T07:35:13.232Z,955.27
2023-02-11T07:36:13.224Z,955.26
2023-02-11T07:37:13.288Z,955.24
2023-02-11T07:38:13.192Z,955.26
2023-02-11T07:39:13.181Z,955.30
2023-02-11T07:40:13.209Z,955.34
2023-02-11T07:41:13.166Z,955.37
2023-02-11T07:42:13.152Z,955.37
2023-02-11T07:43:13.208Z,955.44
2023-02-11T07:44:13.137Z,955.39
2023-02-11T07:45:13.128Z,955.46
2023-02-11T07:46:13.126Z,955.49
2023-02-11T07:47:13.105Z,955.55
2023-02-11T07:48:13.144Z,955.58
2023-02-11T07:49:13.077Z,955.62
2023-02-11T07:50:13.083Z,955.65
2023-02-11T07:51:13.101Z,955.68
2023-02-11T07:52:13.059Z,955.66
2023-02-11T07:53:13.066Z,955.64
2023-02-11T07:54:13.095Z,955.66
2023-02-11T07:55:13.048Z,955.60
2023-02-11T07:56:13.073Z,955.58
2023-02-11T07:57:12.999Z,955.56
2023-02-11T07:58:12.995Z,955.52
2023-02-11T07:59:12.985Z,955.56
2023-02-11T08:00:12.965Z,955.47
2023-02-11T08:01:13.074Z,955.48
2023-02-11T08:02:13.043Z,955.36
2023-02-11T08:03:12.946Z,955.36
2023-02-11T08:04:12.953Z,955.41
2023-02-11T08:05:12.989Z,955.39
2023-02-11T08:06:12.907Z,955.40
2023-02-11T08:07:12.906Z,955.40
2023-02-11T08:08:12.901Z,955.33
2023-02-11T08:09:12.909Z,955.28
2023-02-11T08:10:12.873Z,955.29
2023-02-11T08:11:12.900Z,955.28
2023-02-11T08:12:12.867Z,955.33
2023-02-11T08:13:12.852Z,955.33
2023-02-11T08:14:12.890Z,955.39
2023-02-11T08:15:12.852Z,955.45
2023-02-11T08:16:12.876Z,955.56
2023-02-11T08:17:12.807Z,955.59
2023-02-11T08:18:12.797Z,955.56
2023-02-11T08:19:12.828Z,955.54
2023-02-11T08:20:12.774Z,955.51
2023-02-11T08:21:12.780Z,955.48
2023-02-11T08:22:12.777Z,955.47
2023-02-11T08:23:12.778Z,955.42
2023-02-11T08:24:12.764Z,955.41
2023-02-11T08:25:12.768Z,955.39
2023-02-11T08:26:12.739Z,955.36
2023-02-11T08:27:12.744Z,955.38
2023-02-11T08:28:12.778Z,955.36
2023-02-11T08:29:12.724Z,955.28
2023-02-11T08:30:12.678Z,955.23
2023-02-11T08:31:12.731Z,955.15
2023-02-11T08:32:12.648Z,955.03
2023-02-11T08:33:12.634Z,955.01
2023-02-11T08:34:12.612Z,955.06
2023-02-11T08:35:12.649Z,955.06
2023-02-11T08:36:12.629Z,955.04
2023-02-11T08:37:12.636Z,955.05
2023-02-11T08:38:12.624Z,955.11
2023-02-11T08:39:19.319Z,955.15
2023-02-11T08:40:13.587Z,955.19
2023-02-11T08:41:12.609Z,955.21
2023-02-11T08:42:12.548Z,955.14
2023-02-11T08:43:12.528Z,955.14
2023-02-11T08:44:12.516Z,955.11
2023-02-11T08:45:12.608Z,955.10
2023-02-11T08:46:12.574Z,955.06
2023-02-11T08:47:12.484Z,955.04
2023-02-11T08:48:12.498Z,954.98
2023-02-11T08:49:12.539Z,954.99
2023-02-11T08:50:12.488Z,954.96
2023-02-11T08:51:12.504Z,954.90
2023-02-11T08:52:12.431Z,954.89
2023-02-11T08:53:12.441Z,954.87
2023-02-11T08:54:12.438Z,954.87
2023-02-11T08:55:12.469Z,954.93
2023-02-11T08:56:13.595Z,954.91
2023-02-11T08:57:12.407Z,954.98
2023-02-11T08:58:12.377Z,955.01
2023-02-11T08:59:12.384Z,955.05
2023-02-11T09:00:12.353Z,955.08
2023-02-11T09:01:12.442Z,955.06
2023-02-11T09:02:12.363Z,955.08
2023-02-11T09:03:12.313Z,955.14
2023-02-11T09:04:12.325Z,955.13
2023-02-11T09:05:12.316Z,955.14
2023-02-11T09:06:12.324Z,955.14
2023-02-11T09:07:12.263Z,955.15
2023-02-11T09:08:12.266Z,955.22
2023-02-11T09:09:12.282Z,955.20
2023-02-11T09:10:12.300Z,955.22
2023-02-11T09:11:12.283Z,955.28
2023-02-11T09:12:12.220Z,955.26
2023-02-11T09:13:12.287Z,955.31
2023-02-11T09:14:12.211Z,955.31
2023-02-11T09:15:12.216Z,955.36
2023-02-11T09:16:12.281Z,955.32
2023-02-11T09:17:12.212Z,955.35
2023-02-11T09:18:12.161Z,955.32
2023-02-11T09:19:12.163Z,955.31
2023-02-11T09:20:12.138Z,955.32
2023-02-11T09:21:12.133Z,955.30
2023-02-11T09:22:12.193Z,955.23
2023-02-11T09:23:19.699Z,955.22
2023-02-11T09:24:12.108Z,955.22
2023-02-11T09:25:12.125Z,955.11
2023-02-11T09:26:12.076Z,955.11
2023-02-11T09:27:12.075Z,955.08
2023-02-11T09:28:12.202Z,955.08
2023-02-11T09:29:12.063Z,955.07
2023-02-11T09:30:12.063Z,955.07
2023-02-11T09:31:12.172Z,955.11
2023-02-11T09:32:12.261Z,955.11
2023-02-11T09:33:12.005Z,955.15
2023-02-11T09:34:12.046Z,955.07
2023-02-11T09:35:11.988Z,955.09
2023-02-11T09:36:12.002Z,955.06
2023-02-11T09:37:11.951Z,955.03
2023-02-11T09:38:11.946Z,954.95
2023-02-11T09:39:12.105Z,954.95
2023-02-11T09:40:11.963Z,954.95
2023-02-11T09:41:11.960Z,954.96
2023-02-11T09:42:11.906Z,954.88
2023-02-11T09:43:11.963Z,954.88
2023-02-11T09:44:11.928Z,954.90
2023-02-11T09:45:11.945Z,954.87
2023-02-11T09:46:12.088Z,954.92
2023-02-11T09:47:11.882Z,954.89
2023-02-11T09:48:11.852Z,954.91
2023-02-11T09:49:11.884Z,954.90
2023-02-11T09:50:11.840Z,954.92
2023-02-11T09:51:11.861Z,954.91
2023-02-11T09:52:11.817Z,954.88
2023-02-11T09:53:11.842Z,954.89
2023-02-11T09:54:11.795Z,954.88
2023-02-11T09:55:11.851Z,954.80
2023-02-11T09:56:11.765Z,954.82
2023-02-11T09:57:26.520Z,954.88
2023-02-11T09:58:12.761Z,954.86
2023-02-11T09:59:11.738Z,954.84
2023-02-11T10:00:11.773Z,954.83
2023-02-11T10:01:11.758Z,954.84
2023-02-11T10:02:11.722Z,954.81
2023-02-11T10:03:11.717Z,954.86
2023-02-11T10:04:11.730Z,954.86
2023-02-11T10:05:11.724Z,954.84
2023-02-11T10:06:11.655Z,954.84
2023-02-11T10:07:11.637Z,954.92
2023-02-11T10:08:11.679Z,954.87
2023-02-11T10:09:11.638Z,954.87
2023-02-11T10:10:11.607Z,954.88
2023-02-11T10:11:22.674Z,954.83
2023-02-11T10:12:12.598Z,954.82
2023-02-11T10:13:11.605Z,954.76
2023-02-11T10:14:11.568Z,954.70
2023-02-11T10:15:11.561Z,954.65
2023-02-11T10:16:11.627Z,954.65
2023-02-11T10:17:11.621Z,954.65
2023-02-11T10:18:11.526Z,954.59
2023-02-11T10:19:11.521Z,954.58
2023-02-11T10:20:11.571Z,954.64
2023-02-11T10:21:11.533Z,954.61
2023-02-11T10:22:11.511Z,954.68
2023-02-11T10:23:11.536Z,954.61
2023-02-11T10:24:11.475Z,954.55
2023-02-11T10:25:11.455Z,954.51
2023-02-11T10:26:11.449Z,954.50
2023-02-11T10:27:11.476Z,954.52
2023-02-11T10:28:11.493Z,954.46
2023-02-11T10:29:11.415Z,954.50
2023-02-11T10:30:11.399Z,954.49
2023-02-11T10:31:11.606Z,954.47
2023-02-11T10:32:11.479Z,954.43
2023-02-11T10:33:11.396Z,954.44
2023-02-11T10:34:11.385Z,954.43
2023-02-11T10:35:11.445Z,954.39
2023-02-11T10:36:11.364Z,954.40
2023-02-11T10:37:11.330Z,954.38
2023-02-11T10:38:11.392Z,954.41
2023-02-11T10:39:11.314Z,954.37
2023-02-11T10:40:11.293Z,954.42
2023-02-11T10:41:11.315Z,954.37
2023-02-11T10:42:11.265Z,954.41
2023-02-11T10:43:11.260Z,954.43
2023-02-11T10:44:11.256Z,954.38
2023-02-11T10:45:11.283Z,954.35
2023-02-11T10:46:11.243Z,954.35
2023-02-11T10:47:11.220Z,954.35
2023-02-11T10:48:11.207Z,954.38
2023-02-11T10:49:11.240Z,954.36
2023-02-11T10:50:11.214Z,954.36
2023-02-11T10:51:14.074Z,954.38
2023-02-11T10:52:11.231Z,954.33
2023-02-11T10:53:11.150Z,954.32
2023-02-11T10:54:13.594Z,954.35
2023-02-11T10:55:11.129Z,954.32
2023-02-11T10:56:11.125Z,954.35
2023-02-11T10:57:11.120Z,954.34
2023-02-11T10:58:11.119Z,954.37
2023-02-11T10:59:11.080Z,954.40
2023-02-11T11:00:11.071Z,954.38
2023-02-11T11:01:23.788Z,954.40
2023-02-11T11:02:12.233Z,954.38
2023-02-11T11:03:11.083Z,954.41
2023-02-11T11:04:11.038Z,954.39
2023-02-11T11:05:11.037Z,954.36
2023-02-11T11:06:11.012Z,954.34
2023-02-11T11:07:11.001Z,954.34
2023-02-11T11:08:11.058Z,954.33
2023-02-11T11:09:10.980Z,954.35
2023-02-11T11:10:10.984Z,954.34
2023-02-11T11:11:10.987Z,954.40
2023-02-11T11:12:10.979Z,954.33
2023-02-11T11:13:10.945Z,954.35
2023-02-11T11:14:10.982Z,954.37
2023-02-11T11:15:10.919Z,954.37
2023-02-11T11:16:10.966Z,954.30
2023-02-11T11:17:15.710Z,954.29
2023-02-11T11:18:20.861Z,954.25
2023-02-11T11:19:11.916Z,954.13
2023-02-11T11:20:10.855Z,954.08
2023-02-11T11:21:10.868Z,954.13
2023-02-11T11:22:10.866Z,954.09
2023-02-11T11:23:10.840Z,954.11
2023-02-11T11:24:10.894Z,954.07
2023-02-11T11:25:10.801Z,954.06
2023-02-11T11:26:10.829Z,953.99
2023-02-11T11:27:10.875Z,953.94
2023-02-11T11:28:10.830Z,953.91
2023-02-11T11:29:10.834Z,953.96
2023-02-11T11:30:10.824Z,953.93
2023-02-11T11:31:10.861Z,953.94
2023-02-11T11:32:10.971Z,953.90
2023-02-11T11:33:10.715Z,953.90
2023-02-11T11:34:10.706Z,953.93
2023-02-11T11:35:10.707Z,953.91
2023-02-11T11:36:10.684Z,953.97
2023-02-11T11:37:10.726Z,954.02
2023-02-11T11:38:10.693Z,954.00
2023-02-11T11:39:10.641Z,954.01
2023-02-11T11:40:10.668Z,954.03
2023-02-11T11:41:10.627Z,954.05
2023-02-11T11:42:10.615Z,954.06
2023-02-11T11:43:10.602Z,954.03
2023-02-11T11:44:10.590Z,954.05
2023-02-11T11:45:10.583Z,954.10
2023-02-11T11:46:10.647Z,954.09
2023-02-11T11:47:10.569Z,954.15
2023-02-11T11:48:10.558Z,954.12
2023-02-11T11:49:10.601Z,954.06
2023-02-11T11:50:10.530Z,954.10
2023-02-11T11:51:10.522Z,954.04
2023-02-11T11:52:10.756Z,954.09
2023-02-11T11:53:10.509Z,954.08
2023-02-11T11:54:10.480Z,954.14
2023-02-11T11:55:10.474Z,954.08
2023-02-11T11:56:10.490Z,954.09
2023-02-11T11:57:10.541Z,954.01
2023-02-11T11:58:10.474Z,954.02
2023-02-11T11:59:10.428Z,954.02
2023-02-11T12:00:10.422Z,954.04
2023-02-11T12:01:10.443Z,954.07
2023-02-11T12:02:10.488Z,954.07
2023-02-11T12:03:10.458Z,954.11
2023-02-11T12:04:10.382Z,954.08
2023-02-11T12:05:10.393Z,954.06
2023-02-11T12:06:10.371Z,954.03
2023-02-11T12:07:10.346Z,954.03
2023-02-11T12:08:10.364Z,954.03
2023-02-11T12:09:10.342Z,953.97
2023-02-11T12:10:10.408Z,954.03
2023-02-11T12:11:10.354Z,953.98
2023-02-11T12:12:10.329Z,953.98
2023-02-11T12:13:10.278Z,953.99
2023-02-11T12:14:10.341Z,954.02
2023-02-11T12:15:10.294Z,953.98
2023-02-11T12:16:10.337Z,953.98
2023-02-11T12:17:10.245Z,954.00
2023-02-11T12:18:10.275Z,953.99
2023-02-11T12:19:10.265Z,953.99
2023-02-11T12:20:10.214Z,953.96
2023-02-11T12:21:10.193Z,953.94
2023-02-11T12:22:10.220Z,953.96
2023-02-11T12:23:10.163Z,953.92
2023-02-11T12:24:10.194Z,953.92
2023-02-11T12:25:10.209Z,953.95
2023-02-11T12:26:10.137Z,953.93
2023-02-11T12:27:10.192Z,953.91
2023-02-11T12:28:10.192Z,953.89